Time,TemperatureF,DewpointF,PressureIn,WindDirection,WindDirectionDegrees,WindSpeedMPH,WindSpeedGustMPH,Humidity,HourlyPrecipIn,Conditions,Clouds,dailyrainin,SolarRadiationWatts/m^2,SoftwareType,DateUTC
2013-03-14 00:02:00,50.0,25.0,-100.00,NNW,330,4.0,10.0,38,0.00,,,0.00,0.000000,,2013-03-14 05:02:00,
2013-03-14 00:12:00,50.0,25.0,-100.00,NNW,330,4.0,10.0,38,0.00,,,0.00,0.000000,,2013-03-14 05:12:00,
2013-03-14 00:22:00,50.0,25.0,-100.00,NNW,330,4.0,10.0,38,0.00,,,0.00,0.000000,,2013-03-14 05:22:00,
2013-03-14 00:53:00,48.0,25.0,-100.00,NNW,344,4.0,7.0,41,0.00,,,0.00,0.000000,,2013-03-14 05:53:00,
2013-03-14 01:02:00,48.0,25.0,-100.00,NNW,344,4.0,7.0,41,0.00,,,0.00,0.000000,,2013-03-14 06:02:00,
2013-03-14 01:12:00,48.0,25.0,-100.00,NNW,344,4.0,7.0,41,0.00,,,0.00,0.000000,,2013-03-14 06:12:00,
2013-03-14 01:22:00,48.0,25.0,-100.00,NNW,344,4.0,7.0,41,0.00,,,0.00,0.000000,,2013-03-14 06:22:00,
2013-03-14 01:52:00,45.0,27.0,-100.00,NNW,345,4.0,7.0,48,0.00,,,0.00,0.000000,,2013-03-14 06:52:00,
2013-03-14 02:02:00,45.0,27.0,-100.00,NNW,345,4.0,7.0,48,0.00,,,0.00,0.000000,,2013-03-14 07:02:00,
2013-03-14 02:12:00,45.0,27.0,-100.00,NNW,345,4.0,7.0,48,0.00,,,0.00,0.000000,,2013-03-14 07:12:00,
2013-03-14 02:22:00,45.0,27.0,-100.00,NNW,345,4.0,7.0,48,0.00,,,0.00,0.000000,,2013-03-14 07:22:00,
2013-03-14 02:52:00,43.0,27.0,-100.00,NNW,348,4.0,6.0,52,0.00,,,0.00,0.000000,,2013-03-14 07:52:00,
2013-03-14 03:02:00,43.0,27.0,-100.00,NNW,348,4.0,6.0,52,0.00,,,0.00,0.000000,,2013-03-14 08:02:00,
2013-03-14 03:12:00,43.0,27.0,-100.00,NNW,348,4.0,6.0,52,0.00,,,0.00,0.000000,,2013-03-14 08:12:00,
2013-03-14 03:21:00,43.0,27.0,-100.00,NNW,348,4.0,6.0,52,0.00,,,0.00,0.000000,,2013-03-14 08:21:00,
2013-03-14 03:52:00,42.0,28.0,-100.00,NNW,346,3.0,7.0,58,0.00,,,0.00,0.000000,,2013-03-14 08:52:00,
2013-03-14 04:01:00,42.0,28.0,-100.00,NNW,346,3.0,7.0,58,0.00,,,0.00,0.000000,,2013-03-14 09:01:00,
2013-03-14 04:12:00,42.0,28.0,-100.00,NNW,346,3.0,7.0,58,0.00,,,0.00,0.000000,,2013-03-14 09:12:00,
2013-03-14 04:22:00,42.0,28.0,-100.00,NNW,346,3.0,7.0,58,0.00,,,0.00,0.000000,,2013-03-14 09:22:00,
2013-03-14 04:52:00,41.0,28.0,-100.00,North,8,3.0,6.0,59,0.00,,,-99.99,0.000000,,2013-03-14 09:52:00,
2013-03-14 05:02:00,41.0,28.0,-100.00,North,8,3.0,6.0,59,0.00,,,-99.99,0.000000,,2013-03-14 10:02:00,
2013-03-14 05:12:00,41.0,28.0,-100.00,North,8,3.0,6.0,59,0.00,,,-99.99,0.000000,,2013-03-14 10:12:00,
2013-03-14 05:22:00,41.0,28.0,-100.00,North,8,3.0,6.0,59,0.00,,,-99.99,0.000000,,2013-03-14 10:22:00,
2013-03-14 05:52:00,39.0,27.0,-100.00,North,5,3.0,6.0,61,0.00,,,0.00,0.000000,,2013-03-14 10:52:00,
2013-03-14 06:02:00,39.0,27.0,-100.00,North,5,3.0,6.0,61,0.00,,,0.00,0.000000,,2013-03-14 11:02:00,
2013-03-14 06:12:00,39.0,27.0,-100.00,North,5,3.0,6.0,61,0.00,,,0.00,0.000000,,2013-03-14 11:12:00,
2013-03-14 06:22:00,39.0,27.0,-100.00,North,5,3.0,6.0,61,0.00,,,0.00,0.000000,,2013-03-14 11:22:00,
2013-03-14 06:53:00,39.0,26.0,-100.00,NNE,13,3.0,6.0,59,0.00,,,0.00,0.000000,,2013-03-14 11:53:00,
2013-03-14 07:02:00,39.0,26.0,-100.00,NNE,13,3.0,6.0,59,0.00,,,0.00,0.000000,,2013-03-14 12:02:00,
2013-03-14 07:12:00,39.0,26.0,-100.00,NNE,13,3.0,6.0,59,0.00,,,0.00,0.000000,,2013-03-14 12:12:00,
2013-03-14 07:22:00,39.0,26.0,-100.00,NNE,13,3.0,6.0,59,0.00,,,0.00,0.000000,,2013-03-14 12:22:00,
2013-03-14 07:52:00,38.0,25.0,-100.00,NNE,24,2.0,6.0,58,0.00,,,0.00,5.000000,,2013-03-14 12:52:00,
2013-03-14 08:02:00,38.0,25.0,-100.00,NNE,24,2.0,6.0,58,0.00,,,0.00,5.000000,,2013-03-14 13:02:00,
2013-03-14 08:12:00,38.0,25.0,-100.00,NNE,24,2.0,6.0,58,0.00,,,0.00,5.000000,,2013-03-14 13:12:00,
2013-03-14 08:22:00,38.0,25.0,-100.00,NNE,24,2.0,6.0,58,0.00,,,0.00,5.000000,,2013-03-14 13:22:00,
2013-03-14 08:52:00,44.0,26.0,-100.00,NNE,14,4.0,7.0,49,0.00,,,0.00,160.000000,,2013-03-14 13:52:00,
2013-03-14 09:02:00,44.0,26.0,-100.00,NNE,14,4.0,7.0,49,0.00,,,0.00,160.000000,,2013-03-14 14:02:00,
2013-03-14 09:12:00,44.0,26.0,-100.00,NNE,14,4.0,7.0,49,0.00,,,0.00,160.000000,,2013-03-14 14:12:00,
2013-03-14 09:22:00,44.0,26.0,-100.00,NNE,14,4.0,7.0,49,0.00,,,0.00,160.000000,,2013-03-14 14:22:00,
2013-03-14 09:53:00,48.0,25.0,-100.00,NE,34,7.0,14.0,40,0.00,,,0.00,422.000000,,2013-03-14 14:53:00,
2013-03-14 10:02:00,48.0,25.0,-100.00,NE,34,7.0,14.0,40,0.00,,,0.00,422.000000,,2013-03-14 15:02:00,
2013-03-14 10:12:00,48.0,25.0,-100.00,NE,34,7.0,14.0,40,0.00,,,0.00,422.000000,,2013-03-14 15:12:00,
2013-03-14 10:22:00,48.0,25.0,-100.00,NE,34,7.0,14.0,40,0.00,,,0.00,422.000000,,2013-03-14 15:22:00,
2013-03-14 10:52:00,52.0,21.0,-100.00,North,11,6.0,15.0,29,0.00,,,0.00,667.000000,,2013-03-14 15:52:00,
2013-03-14 11:03:00,52.0,21.0,-100.00,North,11,6.0,15.0,29,0.00,,,0.00,667.000000,,2013-03-14 16:03:00,
2013-03-14 11:12:00,52.0,21.0,-100.00,North,11,6.0,15.0,29,0.00,,,0.00,667.000000,,2013-03-14 16:12:00,
2013-03-14 11:22:00,52.0,21.0,-100.00,North,11,6.0,15.0,29,0.00,,,0.00,667.000000,,2013-03-14 16:22:00,
2013-03-14 11:52:00,56.0,19.0,-100.00,NNE,17,6.0,13.0,23,0.00,,,0.00,863.000000,,2013-03-14 16:52:00,
2013-03-14 12:02:00,56.0,19.0,-100.00,NNE,17,6.0,13.0,23,0.00,,,0.00,863.000000,,2013-03-14 17:02:00,
2013-03-14 12:12:00,56.0,19.0,-100.00,NNE,17,6.0,13.0,23,0.00,,,0.00,863.000000,,2013-03-14 17:12:00,
2013-03-14 12:23:00,56.0,19.0,-100.00,NNE,17,6.0,13.0,23,0.00,,,0.00,863.000000,,2013-03-14 17:23:00,
2013-03-14 12:53:00,59.0,18.0,-100.00,North,356,7.0,13.0,20,0.00,,,0.00,993.000000,,2013-03-14 17:53:00,
2013-03-14 13:03:00,59.0,18.0,-100.00,North,356,7.0,13.0,20,0.00,,,0.00,993.000000,,2013-03-14 18:03:00,
2013-03-14 13:12:00,59.0,18.0,-100.00,North,356,7.0,13.0,20,0.00,,,0.00,993.000000,,2013-03-14 18:12:00,
2013-03-14 13:22:00,59.0,18.0,-100.00,North,356,7.0,13.0,20,0.00,,,0.00,993.000000,,2013-03-14 18:22:00,
2013-03-14 13:52:00,62.0,18.0,-100.00,NNW,335,5.0,14.0,18,0.00,,,0.00,1044.000000,,2013-03-14 18:52:00,
2013-03-14 14:03:00,62.0,18.0,-100.00,NNW,335,5.0,14.0,18,0.00,,,0.00,1044.000000,,2013-03-14 19:03:00,
2013-03-14 14:12:00,62.0,18.0,-100.00,NNW,335,5.0,14.0,18,0.00,,,0.00,1044.000000,,2013-03-14 19:12:00,
2013-03-14 14:22:00,62.0,18.0,-100.00,NNW,335,5.0,14.0,18,0.00,,,0.00,1044.000000,,2013-03-14 19:22:00,
2013-03-14 15:52:00,66.0,23.0,-100.00,NE,50,5.0,13.0,19,-99.99,,,0.00,904.000000,,2013-03-14 20:52:00,
2013-03-14 16:02:00,66.0,23.0,-100.00,NE,50,5.0,13.0,19,-99.99,,,0.00,904.000000,,2013-03-14 21:02:00,
2013-03-14 16:12:00,66.0,23.0,-100.00,NE,50,5.0,13.0,19,-99.99,,,0.00,904.000000,,2013-03-14 21:12:00,
2013-03-14 16:22:00,66.0,23.0,-100.00,NE,50,5.0,13.0,19,-99.99,,,0.00,904.000000,,2013-03-14 21:22:00,
2013-03-14 16:53:00,64.0,31.0,-100.00,South,184,6.0,10.0,29,0.00,,,0.00,718.000000,,2013-03-14 21:53:00,
2013-03-14 17:03:00,64.0,31.0,-100.00,South,184,6.0,10.0,29,0.00,,,0.00,718.000000,,2013-03-14 22:03:00,
2013-03-14 17:13:00,64.0,31.0,-100.00,South,184,6.0,10.0,29,0.00,,,0.00,718.000000,,2013-03-14 22:13:00,
2013-03-14 17:23:00,64.0,31.0,-100.00,South,184,6.0,10.0,29,0.00,,,0.00,718.000000,,2013-03-14 22:23:00,
2013-03-14 17:52:00,62.0,35.0,-100.00,South,189,5.0,11.0,36,0.00,,,0.00,468.000000,,2013-03-14 22:52:00,
2013-03-14 18:02:00,62.0,35.0,-100.00,South,189,5.0,11.0,36,0.00,,,0.00,468.000000,,2013-03-14 23:02:00,
2013-03-14 18:12:00,62.0,35.0,-100.00,South,189,5.0,11.0,36,0.00,,,0.00,468.000000,,2013-03-14 23:12:00,
2013-03-14 18:22:00,62.0,35.0,-100.00,South,189,5.0,11.0,36,0.00,,,0.00,468.000000,,2013-03-14 23:22:00,
2013-03-14 18:53:00,61.0,36.0,-100.00,SSW,211,2.0,9.0,39,0.00,,,0.00,207.000000,,2013-03-14 23:53:00,
2013-03-14 19:02:00,61.0,36.0,-100.00,SSW,211,2.0,9.0,39,0.00,,,0.00,207.000000,,2013-03-15 00:02:00,
2013-03-14 19:12:00,61.0,36.0,-100.00,SSW,211,2.0,9.0,39,0.00,,,0.00,207.000000,,2013-03-15 00:12:00,
2013-03-14 19:22:00,61.0,36.0,-100.00,SSW,211,2.0,9.0,39,0.00,,,0.00,207.000000,,2013-03-15 00:22:00,
2013-03-14 19:52:00,52.0,38.0,-100.00,South,189,0.0,4.0,58,0.00,,,0.00,23.000000,,2013-03-15 00:52:00,
2013-03-14 20:02:00,52.0,38.0,-100.00,South,189,0.0,4.0,58,0.00,,,0.00,23.000000,,2013-03-15 01:02:00,
2013-03-14 20:12:00,52.0,38.0,-100.00,South,189,0.0,4.0,58,0.00,,,0.00,23.000000,,2013-03-15 01:12:00,
2013-03-14 20:22:00,52.0,38.0,-100.00,South,189,0.0,4.0,58,0.00,,,0.00,23.000000,,2013-03-15 01:22:00,
2013-03-14 20:52:00,45.0,39.0,-100.00,East,85,0.0,0.0,79,0.00,,,0.00,0.000000,,2013-03-15 01:52:00,
2013-03-14 21:02:00,45.0,39.0,-100.00,East,85,0.0,0.0,79,0.00,,,0.00,0.000000,,2013-03-15 02:02:00,
2013-03-14 21:12:00,45.0,39.0,-100.00,East,85,0.0,0.0,79,0.00,,,0.00,0.000000,,2013-03-15 02:12:00,
2013-03-14 21:22:00,45.0,39.0,-100.00,East,85,0.0,0.0,79,0.00,,,0.00,0.000000,,2013-03-15 02:22:00,
2013-03-14 21:52:00,41.0,38.0,-100.00,SSE,161,0.0,0.0,88,0.00,,,0.00,0.000000,,2013-03-15 02:52:00,
2013-03-14 22:02:00,41.0,38.0,-100.00,SSE,161,0.0,0.0,88,0.00,,,0.00,0.000000,,2013-03-15 03:02:00,
2013-03-14 22:12:00,41.0,38.0,-100.00,SSE,161,0.0,0.0,88,0.00,,,0.00,0.000000,,2013-03-15 03:12:00,
2013-03-14 22:22:00,41.0,38.0,-100.00,SSE,161,0.0,0.0,88,0.00,,,0.00,0.000000,,2013-03-15 03:22:00,
2013-03-14 22:53:00,39.0,37.0,-100.00,ENE,57,0.0,0.0,92,0.00,,,0.00,0.000000,,2013-03-15 03:53:00,
2013-03-14 23:03:00,39.0,37.0,-100.00,ENE,57,0.0,0.0,92,0.00,,,0.00,0.000000,,2013-03-15 04:03:00,
2013-03-14 23:12:00,39.0,37.0,-100.00,ENE,57,0.0,0.0,92,0.00,,,0.00,0.000000,,2013-03-15 04:12:00,
2013-03-14 23:23:00,39.0,37.0,-100.00,ENE,57,0.0,0.0,92,0.00,,,0.00,0.000000,,2013-03-15 04:23:00,
2013-03-14 23:53:00,38.0,36.0,-100.00,NW,326,0.0,0.0,93,0.00,,,0.00,0.000000,,2013-03-15 04:53:00,